sensor_id;sensor_type;location;lat;lon;timestamp;pressure;altitude;pressure_sealevel;temperature;humidity
21863;BME280;11096;51.338;12.524;2023-04-06T00:00:50;100574.75;;;8.16;46.94
21863;BME280;11096;51.338;12.524;2023-04-06T00:03:15;100574.16;;;8.27;47.10
21863;BME280;11096;51.338;12.524;2023-04-06T00:05:41;100577.94;;;8.21;46.74
21863;BME280;11096;51.338;12.524;2023-04-06T00:08:07;100574.56;;;8.19;47.37
21863;BME280;11096;51.338;12.524;2023-04-06T00:10:32;100571.00;;;8.22;47.31
21863;BME280;11096;51.338;12.524;2023-04-06T00:12:59;100568.72;;;8.49;47.39
21863;BME280;11096;51.338;12.524;2023-04-06T00:15:24;100564.06;;;8.40;47.04
21863;BME280;11096;51.338;12.524;2023-04-06T00:17:50;100568.53;;;8.36;46.93
21863;BME280;11096;51.338;12.524;2023-04-06T00:20:16;100565.72;;;8.41;47.39
21863;BME280;11096;51.338;12.524;2023-04-06T00:22:42;100565.03;;;8.37;47.25
21863;BME280;11096;51.338;12.524;2023-04-06T00:25:08;100556.53;;;8.51;47.28
21863;BME280;11096;51.338;12.524;2023-04-06T00:27:35;100557.88;;;8.58;47.45
21863;BME280;11096;51.338;12.524;2023-04-06T00:30:01;100561.88;;;8.64;47.29
21863;BME280;11096;51.338;12.524;2023-04-06T00:32:31;100563.13;;;8.88;47.30
21863;BME280;11096;51.338;12.524;2023-04-06T00:34:56;100565.41;;;8.78;47.08
21863;BME280;11096;51.338;12.524;2023-04-06T00:37:22;100560.88;;;8.66;47.10
21863;BME280;11096;51.338;12.524;2023-04-06T00:39:47;100559.63;;;8.73;47.08
21863;BME280;11096;51.338;12.524;2023-04-06T00:42:13;100562.22;;;8.73;47.01
21863;BME280;11096;51.338;12.524;2023-04-06T00:44:42;100561.13;;;8.93;46.12
21863;BME280;11096;51.338;12.524;2023-04-06T00:47:08;100562.22;;;8.24;47.52
21863;BME280;11096;51.338;12.524;2023-04-06T00:49:34;100563.16;;;8.23;47.74
21863;BME280;11096;51.338;12.524;2023-04-06T00:52:00;100558.72;;;8.74;47.37
21863;BME280;11096;51.338;12.524;2023-04-06T00:54:27;100545.94;;;8.71;47.23
21863;BME280;11096;51.338;12.524;2023-04-06T00:56:52;100551.19;;;8.70;46.98
21863;BME280;11096;51.338;12.524;2023-04-06T00:59:18;100549.44;;;8.70;47.14
21863;BME280;11096;51.338;12.524;2023-04-06T01:01:43;100549.53;;;8.85;46.92
21863;BME280;11096;51.338;12.524;2023-04-06T01:04:09;100544.00;;;8.91;47.17
21863;BME280;11096;51.338;12.524;2023-04-06T01:06:35;100547.50;;;8.90;46.65
21863;BME280;11096;51.338;12.524;2023-04-06T01:09:00;100545.84;;;8.89;46.65
21863;BME280;11096;51.338;12.524;2023-04-06T01:11:26;100548.84;;;8.97;46.60
21863;BME280;11096;51.338;12.524;2023-04-06T01:13:52;100549.75;;;9.12;46.12
21863;BME280;11096;51.338;12.524;2023-04-06T01:16:18;100543.84;;;8.94;46.66
21863;BME280;11096;51.338;12.524;2023-04-06T01:18:43;100539.91;;;8.87;46.98
21863;BME280;11096;51.338;12.524;2023-04-06T01:21:09;100539.81;;;9.04;46.80
21863;BME280;11096;51.338;12.524;2023-04-06T01:23:44;100545.81;;;9.05;46.56
21863;BME280;11096;51.338;12.524;2023-04-06T01:26:10;100536.38;;;9.03;46.44
21863;BME280;11096;51.338;12.524;2023-04-06T01:28:36;100533.78;;;9.03;46.46
21863;BME280;11096;51.338;12.524;2023-04-06T01:31:03;100532.59;;;9.09;46.24
21863;BME280;11096;51.338;12.524;2023-04-06T01:33:29;100529.25;;;9.07;46.78
21863;BME280;11096;51.338;12.524;2023-04-06T01:35:54;100528.75;;;9.00;47.06
21863;BME280;11096;51.338;12.524;2023-04-06T01:38:20;100519.81;;;9.06;46.90
21863;BME280;11096;51.338;12.524;2023-04-06T01:40:45;100523.91;;;9.10;46.88
21863;BME280;11096;51.338;12.524;2023-04-06T01:43:11;100526.34;;;9.13;47.05
21863;BME280;11096;51.338;12.524;2023-04-06T01:45:36;100526.59;;;9.09;47.25
21863;BME280;11096;51.338;12.524;2023-04-06T01:48:02;100522.31;;;9.08;47.00
21863;BME280;11096;51.338;12.524;2023-04-06T01:50:27;100519.72;;;9.08;47.39
21863;BME280;11096;51.338;12.524;2023-04-06T01:52:53;100527.25;;;9.12;47.66
21863;BME280;11096;51.338;12.524;2023-04-06T01:55:18;100521.31;;;9.10;47.04
21863;BME280;11096;51.338;12.524;2023-04-06T01:57:44;100515.38;;;9.08;47.24
21863;BME280;11096;51.338;12.524;2023-04-06T02:00:10;100519.13;;;9.18;46.94
21863;BME280;11096;51.338;12.524;2023-04-06T02:02:36;100516.13;;;9.10;47.16
21863;BME280;11096;51.338;12.524;2023-04-06T02:05:02;100509.91;;;8.98;47.07
21863;BME280;11096;51.338;12.524;2023-04-06T02:07:27;100513.56;;;8.94;47.63
21863;BME280;11096;51.338;12.524;2023-04-06T02:09:54;100522.75;;;9.00;47.76
21863;BME280;11096;51.338;12.524;2023-04-06T02:12:20;100513.88;;;9.04;47.72
21863;BME280;11096;51.338;12.524;2023-04-06T02:14:46;100511.94;;;9.08;47.45
21863;BME280;11096;51.338;12.524;2023-04-06T02:17:12;100515.22;;;8.95;47.29
21863;BME280;11096;51.338;12.524;2023-04-06T02:19:37;100511.63;;;8.98;47.58
21863;BME280;11096;51.338;12.524;2023-04-06T02:22:03;100517.56;;;9.00;47.84
21863;BME280;11096;51.338;12.524;2023-04-06T02:24:28;100509.56;;;8.89;48.38
21863;BME280;11096;51.338;12.524;2023-04-06T02:26:53;100507.44;;;8.95;48.32
21863;BME280;11096;51.338;12.524;2023-04-06T02:29:19;100511.63;;;8.98;48.06
21863;BME280;11096;51.338;12.524;2023-04-06T02:31:45;100507.56;;;8.94;48.07
21863;BME280;11096;51.338;12.524;2023-04-06T02:34:11;100508.13;;;8.99;48.35
21863;BME280;11096;51.338;12.524;2023-04-06T02:36:45;100501.81;;;9.03;47.87
21863;BME280;11096;51.338;12.524;2023-04-06T02:39:11;100496.81;;;9.00;47.70
21863;BME280;11096;51.338;12.524;2023-04-06T02:41:37;100503.81;;;9.14;47.55
21863;BME280;11096;51.338;12.524;2023-04-06T02:44:03;100508.59;;;9.06;47.50
21863;BME280;11096;51.338;12.524;2023-04-06T02:46:29;100511.19;;;9.06;47.27
21863;BME280;11096;51.338;12.524;2023-04-06T02:48:54;100514.19;;;9.14;47.32
21863;BME280;11096;51.338;12.524;2023-04-06T02:51:20;100505.31;;;9.18;46.93
21863;BME280;11096;51.338;12.524;2023-04-06T02:53:46;100502.81;;;9.16;46.82
21863;BME280;11096;51.338;12.524;2023-04-06T02:56:11;100513.00;;;9.19;46.97
21863;BME280;11096;51.338;12.524;2023-04-06T02:58:37;100510.41;;;9.19;46.98
21863;BME280;11096;51.338;12.524;2023-04-06T03:01:03;100508.19;;;9.28;46.40
21863;BME280;11096;51.338;12.524;2023-04-06T03:03:28;100506.63;;;9.25;46.58
21863;BME280;11096;51.338;12.524;2023-04-06T03:05:55;100504.41;;;9.19;46.54
21863;BME280;11096;51.338;12.524;2023-04-06T03:08:23;100505.22;;;9.19;46.77
21863;BME280;11096;51.338;12.524;2023-04-06T03:10:49;100510.84;;;9.12;46.51
21863;BME280;11096;51.338;12.524;2023-04-06T03:13:14;100496.97;;;9.13;46.82
21863;BME280;11096;51.338;12.524;2023-04-06T03:15:40;100499.47;;;9.14;46.52
21863;BME280;11096;51.338;12.524;2023-04-06T03:18:05;100500.97;;;9.18;46.50
21863;BME280;11096;51.338;12.524;2023-04-06T03:20:31;100502.06;;;9.14;46.61
21863;BME280;11096;51.338;12.524;2023-04-06T03:22:56;100510.97;;;9.24;46.31
21863;BME280;11096;51.338;12.524;2023-04-06T03:25:22;100509.56;;;8.89;47.13
21863;BME280;11096;51.338;12.524;2023-04-06T03:27:47;100516.38;;;9.06;46.98
21863;BME280;11096;51.338;12.524;2023-04-06T03:30:13;100511.88;;;9.09;46.87
21863;BME280;11096;51.338;12.524;2023-04-06T03:32:38;100508.53;;;9.07;46.56
21863;BME280;11096;51.338;12.524;2023-04-06T03:35:04;100506.75;;;9.08;46.48
21863;BME280;11096;51.338;12.524;2023-04-06T03:37:30;100503.69;;;9.01;46.78
21863;BME280;11096;51.338;12.524;2023-04-06T03:39:55;100506.31;;;9.15;46.53
21863;BME280;11096;51.338;12.524;2023-04-06T03:42:20;100504.84;;;9.11;46.76
21863;BME280;11096;51.338;12.524;2023-04-06T03:44:46;100507.88;;;9.03;47.04
21863;BME280;11096;51.338;12.524;2023-04-06T03:47:11;100511.34;;;9.18;46.87
21863;BME280;11096;51.338;12.524;2023-04-06T03:49:37;100512.25;;;9.17;46.86
21863;BME280;11096;51.338;12.524;2023-04-06T03:52:02;100512.44;;;9.14;46.51
21863;BME280;11096;51.338;12.524;2023-04-06T03:54:28;100517.16;;;8.92;46.38
21863;BME280;11096;51.338;12.524;2023-04-06T03:56:53;100514.41;;;8.95;46.70
21863;BME280;11096;51.338;12.524;2023-04-06T03:59:19;100517.00;;;8.95;47.38
21863;BME280;11096;51.338;12.524;2023-04-06T04:01:44;100516.41;;;8.90;47.09
21863;BME280;11096;51.338;12.524;2023-04-06T04:04:10;100524.69;;;8.96;46.86
21863;BME280;11096;51.338;12.524;2023-04-06T04:06:35;100519.94;;;8.89;47.07
21863;BME280;11096;51.338;12.524;2023-04-06T04:09:01;100532.34;;;8.98;47.30
21863;BME280;11096;51.338;12.524;2023-04-06T04:11:27;100528.13;;;8.97;47.30
21863;BME280;11096;51.338;12.524;2023-04-06T04:13:53;100529.94;;;8.95;47.45
21863;BME280;11096;51.338;12.524;2023-04-06T04:16:18;100525.53;;;8.81;47.59
21863;BME280;11096;51.338;12.524;2023-04-06T04:18:44;100528.28;;;8.46;47.85
21863;BME280;11096;51.338;12.524;2023-04-06T04:21:10;100527.81;;;8.40;47.99
21863;BME280;11096;51.338;12.524;2023-04-06T04:23:36;100528.97;;;8.50;47.67
21863;BME280;11096;51.338;12.524;2023-04-06T04:26:01;100529.97;;;8.47;47.49
21863;BME280;11096;51.338;12.524;2023-04-06T04:28:27;100526.72;;;8.10;48.00
21863;BME280;11096;51.338;12.524;2023-04-06T04:30:53;100527.19;;;8.34;47.44
21863;BME280;11096;51.338;12.524;2023-04-06T04:33:18;100529.91;;;8.31;47.94
21863;BME280;11096;51.338;12.524;2023-04-06T04:35:43;100531.03;;;8.27;48.31
21863;BME280;11096;51.338;12.524;2023-04-06T04:38:09;100532.72;;;7.95;48.99
21863;BME280;11096;51.338;12.524;2023-04-06T04:40:34;100537.06;;;8.10;48.91
21863;BME280;11096;51.338;12.524;2023-04-06T04:43:00;100537.91;;;8.11;48.89
21863;BME280;11096;51.338;12.524;2023-04-06T04:45:25;100538.66;;;8.13;48.91
21863;BME280;11096;51.338;12.524;2023-04-06T04:47:51;100536.09;;;8.13;48.93
21863;BME280;11096;51.338;12.524;2023-04-06T04:50:16;100538.91;;;8.08;48.77
21863;BME280;11096;51.338;12.524;2023-04-06T04:52:42;100535.63;;;8.05;49.19
21863;BME280;11096;51.338;12.524;2023-04-06T04:55:07;100537.25;;;8.07;49.42
21863;BME280;11096;51.338;12.524;2023-04-06T04:57:33;100538.72;;;7.95;49.48
21863;BME280;11096;51.338;12.524;2023-04-06T04:59:58;100538.97;;;8.07;49.05
21863;BME280;11096;51.338;12.524;2023-04-06T05:02:24;100547.84;;;8.03;49.41
21863;BME280;11096;51.338;12.524;2023-04-06T05:04:49;100549.19;;;8.10;49.45
21863;BME280;11096;51.338;12.524;2023-04-06T05:07:15;100545.44;;;8.15;49.32
21863;BME280;11096;51.338;12.524;2023-04-06T05:09:43;100551.50;;;8.32;48.86
21863;BME280;11096;51.338;12.524;2023-04-06T05:12:09;100541.16;;;8.48;48.96
21863;BME280;11096;51.338;12.524;2023-04-06T05:14:35;100545.88;;;8.57;48.55
21863;BME280;11096;51.338;12.524;2023-04-06T05:17:01;100546.44;;;8.62;48.43
21863;BME280;11096;51.338;12.524;2023-04-06T05:19:26;100550.19;;;8.72;48.28
21863;BME280;11096;51.338;12.524;2023-04-06T05:21:52;100544.53;;;8.81;47.95
21863;BME280;11096;51.338;12.524;2023-04-06T05:24:17;100550.47;;;8.84;47.57
21863;BME280;11096;51.338;12.524;2023-04-06T05:26:43;100546.50;;;8.92;47.40
21863;BME280;11096;51.338;12.524;2023-04-06T05:29:10;100551.19;;;9.01;47.42
21863;BME280;11096;51.338;12.524;2023-04-06T05:31:36;100544.25;;;9.02;47.42
21863;BME280;11096;51.338;12.524;2023-04-06T05:34:01;100548.16;;;9.09;47.25
21863;BME280;11096;51.338;12.524;2023-04-06T05:36:27;100550.50;;;9.14;47.17
21863;BME280;11096;51.338;12.524;2023-04-06T05:38:52;100549.06;;;9.24;47.20
21863;BME280;11096;51.338;12.524;2023-04-06T05:41:18;100555.31;;;9.36;46.88
21863;BME280;11096;51.338;12.524;2023-04-06T05:43:44;100552.16;;;9.45;46.97
21863;BME280;11096;51.338;12.524;2023-04-06T05:46:10;100557.06;;;9.65;46.75
21863;BME280;11096;51.338;12.524;2023-04-06T05:48:35;100557.44;;;9.74;46.41
21863;BME280;11096;51.338;12.524;2023-04-06T05:51:01;100561.25;;;9.82;46.24
21863;BME280;11096;51.338;12.524;2023-04-06T05:53:27;100555.78;;;10.01;46.24
21863;BME280;11096;51.338;12.524;2023-04-06T05:55:54;100563.38;;;10.19;46.33
21863;BME280;11096;51.338;12.524;2023-04-06T05:58:20;100560.06;;;10.31;46.46
21863;BME280;11096;51.338;12.524;2023-04-06T06:00:45;100559.66;;;9.94;47.35
21863;BME280;11096;51.338;12.524;2023-04-06T06:03:12;100559.50;;;10.12;47.53
21863;BME280;11096;51.338;12.524;2023-04-06T06:05:37;100560.63;;;10.07;47.57
21863;BME280;11096;51.338;12.524;2023-04-06T06:08:03;100561.81;;;10.16;47.10
21863;BME280;11096;51.338;12.524;2023-04-06T06:10:28;100563.22;;;10.22;46.72
21863;BME280;11096;51.338;12.524;2023-04-06T06:12:54;100562.38;;;10.21;47.48
21863;BME280;11096;51.338;12.524;2023-04-06T06:15:19;100563.38;;;10.19;47.63
21863;BME280;11096;51.338;12.524;2023-04-06T06:17:45;100570.84;;;10.53;47.13
21863;BME280;11096;51.338;12.524;2023-04-06T06:20:11;100568.28;;;10.81;46.92
21863;BME280;11096;51.338;12.524;2023-04-06T06:22:37;100567.09;;;10.58;46.93
21863;BME280;11096;51.338;12.524;2023-04-06T06:25:02;100569.16;;;10.52;46.68
21863;BME280;11096;51.338;12.524;2023-04-06T06:27:28;100571.19;;;10.62;46.43
21863;BME280;11096;51.338;12.524;2023-04-06T06:29:53;100571.16;;;10.76;46.77
21863;BME280;11096;51.338;12.524;2023-04-06T06:32:19;100566.75;;;10.49;45.77
21863;BME280;11096;51.338;12.524;2023-04-06T06:34:45;100573.53;;;10.93;45.93
21863;BME280;11096;51.338;12.524;2023-04-06T06:37:10;100563.31;;;10.63;45.95
21863;BME280;11096;51.338;12.524;2023-04-06T06:39:36;100577.66;;;10.83;46.17
21863;BME280;11096;51.338;12.524;2023-04-06T06:42:01;100576.50;;;10.87;45.75
21863;BME280;11096;51.338;12.524;2023-04-06T06:44:27;100568.38;;;11.33;45.54
21863;BME280;11096;51.338;12.524;2023-04-06T06:46:53;100573.78;;;11.03;44.70
21863;BME280;11096;51.338;12.524;2023-04-06T06:49:19;100569.81;;;12.03;44.54
21863;BME280;11096;51.338;12.524;2023-04-06T06:51:45;100568.75;;;11.80;44.11
21863;BME280;11096;51.338;12.524;2023-04-06T06:54:11;100570.19;;;11.71;43.30
21863;BME280;11096;51.338;12.524;2023-04-06T06:56:37;100568.59;;;12.09;42.59
21863;BME280;11096;51.338;12.524;2023-04-06T06:59:03;100567.59;;;12.35;42.76
21863;BME280;11096;51.338;12.524;2023-04-06T07:01:30;100572.34;;;12.67;41.39
21863;BME280;11096;51.338;12.524;2023-04-06T07:03:56;100576.34;;;12.84;41.49
21863;BME280;11096;51.338;12.524;2023-04-06T07:06:21;100568.28;;;12.63;41.08
21863;BME280;11096;51.338;12.524;2023-04-06T07:08:47;100571.44;;;12.55;39.95
21863;BME280;11096;51.338;12.524;2023-04-06T07:11:13;100567.91;;;13.52;39.21
21863;BME280;11096;51.338;12.524;2023-04-06T07:13:38;100569.34;;;13.57;38.60
21863;BME280;11096;51.338;12.524;2023-04-06T07:16:04;100572.41;;;13.50;37.79
21863;BME280;11096;51.338;12.524;2023-04-06T07:18:29;100573.59;;;13.46;36.89
21863;BME280;11096;51.338;12.524;2023-04-06T07:20:55;100571.81;;;13.23;36.60
21863;BME280;11096;51.338;12.524;2023-04-06T07:23:20;100566.78;;;12.72;37.72
21863;BME280;11096;51.338;12.524;2023-04-06T07:25:46;100574.94;;;12.80;37.37
21863;BME280;11096;51.338;12.524;2023-04-06T07:28:11;100568.06;;;12.66;36.20
21863;BME280;11096;51.338;12.524;2023-04-06T07:30:37;100566.38;;;12.78;35.97
21863;BME280;11096;51.338;12.524;2023-04-06T07:33:03;100563.78;;;13.61;35.63
21863;BME280;11096;51.338;12.524;2023-04-06T07:35:31;100575.25;;;14.05;36.12
21863;BME280;11096;51.338;12.524;2023-04-06T07:37:57;100570.63;;;15.09;33.63
21863;BME280;11096;51.338;12.524;2023-04-06T07:40:23;100562.06;;;14.74;32.92
21863;BME280;11096;51.338;12.524;2023-04-06T07:42:48;100565.16;;;14.79;33.85
21863;BME280;11096;51.338;12.524;2023-04-06T07:45:14;100576.56;;;14.45;33.71
21863;BME280;11096;51.338;12.524;2023-04-06T07:47:41;100578.22;;;14.46;33.60
21863;BME280;11096;51.338;12.524;2023-04-06T07:50:07;100568.59;;;14.46;33.17
21863;BME280;11096;51.338;12.524;2023-04-06T07:52:32;100576.69;;;14.54;34.14
21863;BME280;11096;51.338;12.524;2023-04-06T07:54:58;100568.84;;;14.43;33.35
21863;BME280;11096;51.338;12.524;2023-04-06T07:57:24;100576.47;;;14.57;35.41
21863;BME280;11096;51.338;12.524;2023-04-06T07:59:50;100565.50;;;14.75;33.66
21863;BME280;11096;51.338;12.524;2023-04-06T08:02:15;100569.81;;;15.08;33.47
21863;BME280;11096;51.338;12.524;2023-04-06T08:04:41;100568.97;;;15.40;32.99
21863;BME280;11096;51.338;12.524;2023-04-06T08:07:06;100559.00;;;15.34;32.99
21863;BME280;11096;51.338;12.524;2023-04-06T08:09:32;100567.34;;;15.81;32.74
21863;BME280;11096;51.338;12.524;2023-04-06T08:11:57;100564.84;;;16.00;31.87
21863;BME280;11096;51.338;12.524;2023-04-06T08:14:23;100569.53;;;15.76;32.34
21863;BME280;11096;51.338;12.524;2023-04-06T08:16:49;100568.50;;;15.88;32.16
21863;BME280;11096;51.338;12.524;2023-04-06T08:19:15;100561.66;;;15.22;32.51
21863;BME280;11096;51.338;12.524;2023-04-06T08:21:43;100565.38;;;15.73;32.30
21863;BME280;11096;51.338;12.524;2023-04-06T08:24:08;100566.91;;;16.06;32.01
21863;BME280;11096;51.338;12.524;2023-04-06T08:26:34;100558.06;;;15.98;32.47
21863;BME280;11096;51.338;12.524;2023-04-06T08:29:00;100563.03;;;15.59;32.47
21863;BME280;11096;51.338;12.524;2023-04-06T08:31:25;100563.00;;;16.31;32.55
21863;BME280;11096;51.338;12.524;2023-04-06T08:33:51;100561.25;;;16.01;31.23
21863;BME280;11096;51.338;12.524;2023-04-06T08:36:17;100555.97;;;15.71;31.65
21863;BME280;11096;51.338;12.524;2023-04-06T08:38:45;100553.38;;;16.32;31.60
21863;BME280;11096;51.338;12.524;2023-04-06T08:41:12;100562.44;;;15.55;31.84
21863;BME280;11096;51.338;12.524;2023-04-06T08:43:43;100551.78;;;16.10;31.15
21863;BME280;11096;51.338;12.524;2023-04-06T08:46:10;100553.31;;;16.13;31.19
21863;BME280;11096;51.338;12.524;2023-04-06T08:48:38;100546.97;;;16.15;31.74
21863;BME280;11096;51.338;12.524;2023-04-06T08:51:03;100550.00;;;15.89;31.33
21863;BME280;11096;51.338;12.524;2023-04-06T08:53:29;100552.56;;;16.82;30.90
21863;BME280;11096;51.338;12.524;2023-04-06T08:55:57;100551.72;;;17.20;31.53
21863;BME280;11096;51.338;12.524;2023-04-06T08:58:24;100548.84;;;16.94;30.78
21863;BME280;11096;51.338;12.524;2023-04-06T09:00:51;100551.06;;;16.99;29.75
21863;BME280;11096;51.338;12.524;2023-04-06T09:03:18;100557.53;;;16.85;29.80
21863;BME280;11096;51.338;12.524;2023-04-06T09:05:46;100547.84;;;16.85;30.62
21863;BME280;11096;51.338;12.524;2023-04-06T09:08:12;100559.44;;;16.33;30.19
21863;BME280;11096;51.338;12.524;2023-04-06T09:10:40;100548.78;;;16.24;31.18
21863;BME280;11096;51.338;12.524;2023-04-06T09:13:07;100550.38;;;17.26;30.62
21863;BME280;11096;51.338;12.524;2023-04-06T09:15:33;100547.88;;;17.24;29.47
21863;BME280;11096;51.338;12.524;2023-04-06T09:17:59;100543.13;;;18.14;29.12
21863;BME280;11096;51.338;12.524;2023-04-06T09:20:25;100547.09;;;19.01;29.01
21863;BME280;11096;51.338;12.524;2023-04-06T09:22:52;100541.19;;;21.86;24.89
21863;BME280;11096;51.338;12.524;2023-04-06T09:25:19;100528.97;;;25.95;21.44
21863;BME280;11096;51.338;12.524;2023-04-06T09:27:46;100523.34;;;29.01;19.21
21863;BME280;11096;51.338;12.524;2023-04-06T09:30:12;100521.44;;;30.74;16.96
21863;BME280;11096;51.338;12.524;2023-04-06T09:32:49;100521.75;;;29.87;17.39
21863;BME280;11096;51.338;12.524;2023-04-06T09:35:15;100513.00;;;28.41;18.22
21863;BME280;11096;51.338;12.524;2023-04-06T09:37:44;100524.19;;;27.46;18.91
21863;BME280;11096;51.338;12.524;2023-04-06T09:40:10;100510.47;;;24.59;19.46
21863;BME280;11096;51.338;12.524;2023-04-06T09:42:35;100519.03;;;22.35;21.67
21863;BME280;11096;51.338;12.524;2023-04-06T09:45:04;100520.94;;;23.04;20.75
21863;BME280;11096;51.338;12.524;2023-04-06T09:47:33;100517.94;;;24.70;19.57
21863;BME280;11096;51.338;12.524;2023-04-06T09:50:02;100508.94;;;24.35;19.93
21863;BME280;11096;51.338;12.524;2023-04-06T09:52:33;100511.28;;;23.26;19.95
21863;BME280;11096;51.338;12.524;2023-04-06T09:55:04;100518.25;;;21.62;21.63
21863;BME280;11096;51.338;12.524;2023-04-06T09:57:40;100511.34;;;22.48;21.62
21863;BME280;11096;51.338;12.524;2023-04-06T10:00:08;100511.44;;;23.62;20.25
21863;BME280;11096;51.338;12.524;2023-04-06T10:05:57;100506.75;;;24.24;20.80
21863;BME280;11096;51.338;12.524;2023-04-06T10:08:27;100514.97;;;27.35;18.43
21863;BME280;11096;51.338;12.524;2023-04-06T10:10:54;100502.63;;;31.16;15.95
21863;BME280;11096;51.338;12.524;2023-04-06T10:13:20;100504.63;;;29.26;15.54
21863;BME280;11096;51.338;12.524;2023-04-06T10:15:46;100510.47;;;25.23;18.43
21863;BME280;11096;51.338;12.524;2023-04-06T10:18:12;100501.28;;;25.04;18.33
21863;BME280;11096;51.338;12.524;2023-04-06T10:20:39;100490.41;;;29.00;16.24
21863;BME280;11096;51.338;12.524;2023-04-06T10:23:19;100492.41;;;32.75;13.93
21863;BME280;11096;51.338;12.524;2023-04-06T10:25:56;100483.75;;;35.30;13.16
21863;BME280;11096;51.338;12.524;2023-04-06T10:28:23;100487.72;;;36.59;11.91
21863;BME280;11096;51.338;12.524;2023-04-06T10:30:49;100489.91;;;35.20;11.87
21863;BME280;11096;51.338;12.524;2023-04-06T10:33:19;100486.84;;;36.27;11.29
21863;BME280;11096;51.338;12.524;2023-04-06T10:35:45;100492.41;;;35.95;11.46
21863;BME280;11096;51.338;12.524;2023-04-06T10:38:12;100481.16;;;37.16;11.71
21863;BME280;11096;51.338;12.524;2023-04-06T10:40:41;100487.91;;;38.78;10.48
21863;BME280;11096;51.338;12.524;2023-04-06T10:43:21;100477.53;;;38.11;10.57
21863;BME280;11096;51.338;12.524;2023-04-06T10:45:57;100478.31;;;39.15;9.49
21863;BME280;11096;51.338;12.524;2023-04-06T10:48:24;100477.53;;;38.85;9.91
21863;BME280;11096;51.338;12.524;2023-04-06T10:50:51;100479.09;;;39.44;9.43
21863;BME280;11096;51.338;12.524;2023-04-06T10:55:49;100478.28;;;40.06;9.45
21863;BME280;11096;51.338;12.524;2023-04-06T10:58:15;100465.19;;;39.22;10.13
21863;BME280;11096;51.338;12.524;2023-04-06T11:00:48;100464.97;;;39.42;9.88
21863;BME280;11096;51.338;12.524;2023-04-06T11:03:14;100467.88;;;38.69;9.71
21863;BME280;11096;51.338;12.524;2023-04-06T11:05:50;100468.94;;;40.31;9.21
21863;BME280;11096;51.338;12.524;2023-04-06T11:08:32;100455.31;;;40.64;9.09
21863;BME280;11096;51.338;12.524;2023-04-06T11:11:12;100448.25;;;38.08;9.91
21863;BME280;11096;51.338;12.524;2023-04-06T11:13:49;100458.00;;;39.79;9.81
21863;BME280;11096;51.338;12.524;2023-04-06T11:16:20;100448.50;;;38.51;10.11
21863;BME280;11096;51.338;12.524;2023-04-06T11:18:49;100449.63;;;40.79;9.57
21863;BME280;11096;51.338;12.524;2023-04-06T11:21:15;100445.38;;;40.21;9.40
21863;BME280;11096;51.338;12.524;2023-04-06T11:23:40;100450.44;;;39.95;nan
21863;BME280;11096;51.338;12.524;2023-04-06T11:26:12;100447.31;;;40.21;nan
21863;BME280;11096;51.338;12.524;2023-04-06T11:28:42;100456.22;;;39.45;nan
21863;BME280;11096;51.338;12.524;2023-04-06T11:31:10;100443.47;;;33.11;nan
21863;BME280;11096;51.338;12.524;2023-04-06T11:33:39;100449.72;;;36.02;nan
21863;BME280;11096;51.338;12.524;2023-04-06T11:36:05;100444.53;;;37.99;nan
21863;BME280;11096;51.338;12.524;2023-04-06T11:38:32;100440.31;;;38.17;nan
21863;BME280;11096;51.338;12.524;2023-04-06T11:40:57;100437.41;;;38.08;nan
21863;BME280;11096;51.338;12.524;2023-04-06T11:43:30;100430.88;;;40.91;nan
21863;BME280;11096;51.338;12.524;2023-04-06T11:46:03;100436.59;;;42.94;nan
21863;BME280;11096;51.338;12.524;2023-04-06T11:48:30;100434.28;;;42.47;nan
21863;BME280;11096;51.338;12.524;2023-04-06T11:50:59;100423.03;;;43.20;nan
21863;BME280;11096;51.338;12.524;2023-04-06T11:53:27;100426.66;;;42.67;nan
21863;BME280;11096;51.338;12.524;2023-04-06T11:55:53;100429.53;;;43.59;nan
21863;BME280;11096;51.338;12.524;2023-04-06T11:58:18;100425.16;;;42.92;nan
21863;BME280;11096;51.338;12.524;2023-04-06T12:00:44;100419.66;;;41.07;nan
21863;BME280;11096;51.338;12.524;2023-04-06T12:03:13;100431.16;;;43.60;nan
21863;BME280;11096;51.338;12.524;2023-04-06T12:05:39;100422.56;;;41.88;nan
21863;BME280;11096;51.338;12.524;2023-04-06T12:08:05;100414.00;;;40.10;nan
21863;BME280;11096;51.338;12.524;2023-04-06T12:10:30;100413.31;;;40.18;nan
21863;BME280;11096;51.338;12.524;2023-04-06T12:12:56;100403.91;;;39.11;nan
21863;BME280;11096;51.338;12.524;2023-04-06T12:15:21;100409.75;;;41.38;nan
21863;BME280;11096;51.338;12.524;2023-04-06T12:17:47;100409.94;;;41.42;nan
21863;BME280;11096;51.338;12.524;2023-04-06T12:20:13;100401.69;;;42.51;nan
21863;BME280;11096;51.338;12.524;2023-04-06T12:22:39;100409.22;;;41.87;nan
21863;BME280;11096;51.338;12.524;2023-04-06T12:25:05;100404.50;;;41.42;nan
21863;BME280;11096;51.338;12.524;2023-04-06T12:27:32;100388.53;;;40.66;nan
21863;BME280;11096;51.338;12.524;2023-04-06T12:29:58;100395.53;;;41.00;nan
21863;BME280;11096;51.338;12.524;2023-04-06T12:32:23;100383.63;;;37.76;nan
21863;BME280;11096;51.338;12.524;2023-04-06T12:34:49;100390.16;;;40.02;nan
21863;BME280;11096;51.338;12.524;2023-04-06T12:37:16;100389.72;;;43.27;nan
21863;BME280;11096;51.338;12.524;2023-04-06T12:39:41;100391.28;;;42.62;nan
21863;BME280;11096;51.338;12.524;2023-04-06T12:42:09;100380.19;;;42.98;nan
21863;BME280;11096;51.338;12.524;2023-04-06T12:44:35;100382.69;;;40.59;nan
21863;BME280;11096;51.338;12.524;2023-04-06T12:47:00;100379.09;;;39.98;nan
21863;BME280;11096;51.338;12.524;2023-04-06T12:49:26;100376.13;;;41.43;nan